Meath Environmental Platform

Observations for Trim Patrick St

Time AQI Temp °C Hum % Pres Pa CO μg/m³ H₂S μg/m³ NO μg/m³ NO₂ μg/m³ O₃ μg/m³ SO₂ μg/m³ PM1 μg/m³ PM2.5 μg/m³ PM10 μg/m³
Monday 3 August 2026
11:21 2 27.7 45 69,092 0 0 1.9 9.76 75.64 9.43 5.43 11.39 12.53
11:20 2 27.7 47 69,104 0 0 2.12 8.58 70.91 8.21 4.57 10.47 11.51
11:19 2 27.7 45 69,116 0 0 1.98 7.47 70.92 7.06 3.71 9.85 10.84
11:18 2 27.7 47 69,102 0 0 2.18 8.57 71.01 9.04 3.71 9.67 10.63
11:16 2 27.7 45 69,080 0 0 2 6.72 77.65 8.36 5.43 10.62 11.68
11:15 2 27.7 46 69,084 0 0 2.07 6.75 73.21 8.75 4.57 9.78 10.76
11:14 2 27.8 44 69,090 0 0 1.94 6.34 72.59 6.88 3.71 9.89 10.88
11:13 2 27.8 46 69,072 0 0 2.08 1.04 67.47 7 4.57 9.77 10.75
11:12 2 27.8 48 69,074 0 0 2.22 11.13 68.83 8.38 4.57 9.64 10.6
11:10 2 27.8 46 69,063 0 0 2.12 9.69 69.09 7.9 4.57 9.77 10.74
11:09 2 27.8 47 69,084 0 0 2.22 10.11 70.31 7.37 5.43 10.44 11.49
11:08 2 27.7 50 69,086 0 0 2.48 4.21 70.47 8.15 4.57 9.48 10.43
11:07 2 27.6 46 69,090 0 0 2.16 5.82 69.42 6.53 5.43 11.28 12.41
11:06 2 27.6 48 69,090 0 0 2.24 7.5 71.44 7.52 4.57 9.65 10.61
11:05 2 27.4 52 69,086 0 0 2.56 10.86 65.7 7.08 4.57 9.36 10.3
11:04 2 27.3 48 69,082 0 0 2.27 6 68.59 8.09 4.57 9.59 10.55
11:03 2 27.3 47 69,106 0 0 2.13 10.73 69.47 7.14 5.43 11.23 12.35
11:02 2 27.2 46 69,110 0 0 2.01 4.98 67.75 6.52 4.57 10.52 11.58
11:01 2 27.2 48 69,116 0 0 2.23 10.85 68.27 7.82 5.43 10.38 11.42
11:00 2 27.1 49 69,122 0 0 2.27 10.06 66.47 7.38 4.57 10.3 11.33